18 | 10 | 2018

Daten Vortag

Wetterdaten von 10m Höhe gemessen, Station 2 

Datum / Zeit Intervall min Luftfeuchte % Temperatur °C absolut Luftdruck hPa Wind m/s Windbö m/s Richtung Relative Luftdruck hPa Taupunkt °C Windchill °C Niederschlag mm
17-10-2018 00:17 5 98 11.3 1016.6 0.0 0.0 NW 1020.1 11.0 11.3 0.0
17-10-2018 00:22 5 98 11.2 1016.5 0.0 0.0 NW 1020.0 10.9 11.2 0.0
17-10-2018 00:27 5 98 11.1 1016.6 0.0 0.0 NW 1020.1 10.8 11.1 0.0
17-10-2018 00:32 5 99 10.7 1016.6 0.0 0.0 NW 1020.1 10.6 10.7 0.0
17-10-2018 00:37 5 99 10.4 1016.6 0.0 0.0 NW 1020.1 10.3 10.4 0.0
17-10-2018 00:42 5 99 10.3 1016.6 0.0 0.0 NW 1020.1 10.2 10.3 0.0
17-10-2018 00:47 5 99 10.4 1016.5 0.0 0.0 NW 1020.0 10.3 10.4 0.0
17-10-2018 00:52 5 99 10.3 1016.5 0.0 0.0 NW 1020.0 10.2 10.3 0.0
17-10-2018 00:57 5 99 10.2 1016.4 0.0 0.0 NW 1019.9 10.1 10.2 0.0
17-10-2018 01:02 5 99 10.2 1016.6 0.0 0.0 NW 1020.1 10.1 10.2 0.0
17-10-2018 01:07 5 99 10.3 1016.4 0.0 0.0 NW 1019.9 10.2 10.3 0.0
17-10-2018 01:12 5 99 10.1 1016.4 0.0 0.0 NW 1019.9 10.0 10.1 0.0
17-10-2018 01:17 5 99 9.9 1016.4 0.0 0.0 NW 1019.9 9.8 9.9 0.0
17-10-2018 01:22 5 99 9.9 1016.4 0.0 0.0 NW 1019.9 9.8 9.9 0.0
17-10-2018 01:27 5 99 9.9 1016.4 0.0 0.0 NW 1019.9 9.8 9.9 0.0
17-10-2018 01:32 5 99 9.8 1016.3 0.0 0.0 NW 1019.8 9.7 9.8 0.0
17-10-2018 01:37 5 99 9.7 1016.3 0.0 0.0 NW 1019.8 9.6 9.7 0.0
17-10-2018 01:42 5 99 9.6 1016.2 0.0 0.0 NW 1019.7 9.5 9.6 0.0
17-10-2018 01:47 5 99 9.3 1016.2 0.0 0.0 NW 1019.7 9.2 9.3 0.0
17-10-2018 01:52 5 99 9.4 1016.2 0.0 0.0 NW 1019.7 9.3 9.4 0.0
17-10-2018 01:57 5 99 9.2 1016.1 0.0 0.0 NW 1019.6 9.1 9.2 0.0
17-10-2018 02:02 5 99 9.1 1016.0 0.0 0.0 NW 1019.5 9.0 9.1 0.0
17-10-2018 02:07 5 99 9.0 1016.0 0.0 0.0 NW 1019.5 8.9 9.0 0.0
17-10-2018 02:12 5 99 8.7 1016.0 0.0 0.0 NW 1019.5 8.6 8.7 0.0
17-10-2018 02:17 5 99 9.0 1016.0 0.0 0.0 NW 1019.5 8.9 9.0 0.0
17-10-2018 02:22 5 99 9.4 1016.0 0.0 0.0 NW 1019.5 9.3 9.4 0.0
17-10-2018 02:27 5 99 9.4 1016.0 0.0 0.0 NW 1019.5 9.3 9.4 0.0
17-10-2018 02:32 5 99 9.7 1015.9 0.0 0.0 NW 1019.4 9.6 9.7 0.0
17-10-2018 02:37 5 99 9.2 1015.9 0.0 0.0 NW 1019.4 9.1 9.2 0.0
17-10-2018 02:42 5 99 9.0 1015.9 0.0 0.0 NW 1019.4 8.9 9.0 0.0
17-10-2018 02:47 5 99 8.9 1016.0 0.0 0.0 NW 1019.5 8.8 8.9 0.0
17-10-2018 02:52 5 99 8.9 1015.9 0.0 0.0 NW 1019.4 8.8 8.9 0.0
17-10-2018 02:57 5 99 8.9 1015.9 0.0 0.0 NW 1019.4 8.8 8.9 0.0
17-10-2018 03:02 5 99 8.6 1015.9 0.0 0.0 NW 1019.4 8.5 8.6 0.0
17-10-2018 03:07 5 99 8.5 1015.7 0.0 0.0 NW 1019.2 8.4 8.5 0.0
17-10-2018 03:12 5 99 8.5 1015.8 0.0 0.0 NW 1019.3 8.4 8.5 0.0
17-10-2018 03:17 5 99 8.4 1015.9 0.0 0.0 NW 1019.4 8.3 8.4 0.0
17-10-2018 03:22 5 99 8.2 1015.8 0.0 0.0 NW 1019.3 8.1 8.2 0.0
17-10-2018 03:27 5 99 8.3 1015.8 0.0 0.0 NW 1019.3 8.2 8.3 0.0
17-10-2018 03:32 5 99 8.0 1015.9 0.0 0.0 NW 1019.4 7.9 8.0 0.0
17-10-2018 03:37 5 97 7.9 1015.9 0.0 0.0 NW 1019.4 7.5 7.9 0.0
17-10-2018 03:42 5 97 7.9 1015.8 0.0 0.0 NW 1019.3 7.5 7.9 0.0
17-10-2018 03:47 5 99 8.0 1015.8 0.0 0.0 NW 1019.3 7.9 8.0 0.0
17-10-2018 03:52 5 99 8.2 1015.7 0.0 0.0 NW 1019.2 8.1 8.2 0.0
17-10-2018 03:57 5 99 8.0 1015.7 0.0 0.0 NW 1019.2 7.9 8.0 0.0
17-10-2018 04:02 5 97 7.9 1015.6 0.0 0.0 NW 1019.1 7.5 7.9 0.0
17-10-2018 04:07 5 97 7.9 1015.6 0.0 1.1 NW 1019.1 7.5 7.9 0.0
17-10-2018 04:12 5 97 7.8 1015.6 0.0 0.0 NW 1019.1 7.4 7.8 0.0
17-10-2018 04:17 5 97 7.8 1015.6 0.0 0.0 NW 1019.1 7.4 7.8 0.0
17-10-2018 04:22 5 97 7.7 1015.6 0.0 0.0 NW 1019.1 7.3 7.7 0.0
17-10-2018 04:27 5 97 7.7 1015.6 0.0 0.0 NW 1019.1 7.3 7.7 0.0
17-10-2018 04:32 5 97 7.6 1015.6 0.0 0.0 NW 1019.1 7.2 7.6 0.0
17-10-2018 04:37 5 97 7.5 1015.6 0.0 0.0 NW 1019.1 7.1 7.5 0.0
17-10-2018 04:42 5 97 7.7 1015.6 0.0 1.1 NW 1019.1 7.3 7.7 0.0
17-10-2018 04:47 5 97 7.5 1015.7 0.0 0.0 NW 1019.2 7.1 7.5 0.0
17-10-2018 04:52 5 97 7.3 1015.7 1.1 2.5 NW 1019.2 6.9 7.3 0.0
17-10-2018 04:57 5 97 7.4 1015.6 0.0 1.1 NW 1019.1 7.0 7.4 0.0
17-10-2018 05:02 5 97 7.5 1015.6 0.0 0.0 NW 1019.1 7.1 7.5 0.0
17-10-2018 05:07 5 97 7.4 1015.6 0.0 0.0 NW 1019.1 7.0 7.4 0.0
17-10-2018 05:12 5 97 7.4 1015.8 0.0 0.0 NW 1019.3 7.0 7.4 0.0
17-10-2018 05:17 5 97 7.5 1015.8 0.0 0.0 NW 1019.3 7.1 7.5 0.0
17-10-2018 05:22 5 97 7.4 1015.7 0.0 0.0 NW 1019.2 7.0 7.4 0.0
17-10-2018 05:27 5 97 7.3 1015.6 0.0 0.0 NW 1019.1 6.9 7.3 0.0
17-10-2018 05:32 5 97 7.2 1015.6 0.0 0.0 NW 1019.1 6.8 7.2 0.0
17-10-2018 05:37 5 97 7.2 1015.6 0.0 0.0 NW 1019.1 6.8 7.2 0.0
17-10-2018 05:42 5 97 7.3 1015.6 0.0 0.0 NW 1019.1 6.9 7.3 0.0
17-10-2018 05:47 5 97 7.3 1015.6 0.0 0.0 NW 1019.1 6.9 7.3 0.0
17-10-2018 05:53 6 97 7.5 1015.7 1.1 2.5 NW 1019.2 7.1 7.5 0.0
17-10-2018 05:58 5 97 7.2 1015.7 1.1 2.5 NW 1019.2 6.8 7.2 0.0
17-10-2018 06:03 5 98 6.8 1015.7 1.1 2.5 NW 1019.2 6.5 6.8 0.0
17-10-2018 06:09 6 98 6.7 1015.6 2.5 3.6 NW 1019.1 6.4 6.7 0.0
17-10-2018 06:14 5 98 6.7 1015.8 2.5 3.6 NW 1019.3 6.4 6.7 0.0
17-10-2018 06:19 5 98 6.4 1015.8 1.1 2.5 NW 1019.3 6.1 6.4 0.0
17-10-2018 06:25 6 98 6.4 1015.7 0.0 1.1 NW 1019.2 6.1 6.4 0.0
17-10-2018 06:30 5 98 6.3 1015.7 0.0 0.0 NW 1019.2 6.0 6.3 0.0
17-10-2018 06:35 5 98 6.3 1015.9 0.0 0.0 NW 1019.4 6.0 6.3 0.0
17-10-2018 06:40 5 98 6.4 1015.7 1.1 2.5 NW 1019.2 6.1 6.4 0.0
17-10-2018 06:45 5 98 6.6 1015.8 0.0 2.5 NW 1019.3 6.3 6.6 0.0
17-10-2018 06:50 5 98 6.6 1015.8 0.0 2.5 NW 1019.3 6.3 6.6 0.0
17-10-2018 06:55 5 98 6.6 1015.8 0.0 0.0 NW 1019.3 6.3 6.6 0.0
17-10-2018 07:00 5 98 6.5 1015.8 0.0 0.0 NW 1019.3 6.2 6.5 0.0
17-10-2018 07:05 5 98 6.5 1015.9 0.0 0.0 NW 1019.4 6.2 6.5 0.0
17-10-2018 07:10 5 98 6.5 1015.7 0.0 0.0 NW 1019.2 6.2 6.5 0.0
17-10-2018 07:15 5 98 6.5 1015.7 2.5 3.6 NW 1019.2 6.2 6.5 0.0
17-10-2018 07:20 5 98 6.5 1015.7 0.0 0.0 NW 1019.2 6.2 6.5 0.0
17-10-2018 07:25 5 98 6.6 1015.9 0.0 0.0 NW 1019.4 6.3 6.6 0.0
17-10-2018 07:30 5 98 6.6 1015.7 0.0 0.0 NW 1019.2 6.3 6.6 0.0
17-10-2018 07:35 5 98 6.6 1015.8 0.0 0.0 NW 1019.3 6.3 6.6 0.0
17-10-2018 07:40 5 98 6.6 1015.9 1.1 2.5 NW 1019.4 6.3 6.6 0.0
17-10-2018 07:45 5 98 6.6 1015.7 0.0 0.0 NW 1019.2 6.3 6.6 0.0
17-10-2018 07:50 5 98 6.6 1015.9 0.0 0.0 NW 1019.4 6.3 6.6 0.0
17-10-2018 07:55 5 98 6.6 1015.9 0.0 0.0 NW 1019.4 6.3 6.6 0.0
17-10-2018 08:00 5 98 6.7 1015.9 1.1 2.5 NW 1019.4 6.4 6.7 0.0
17-10-2018 08:05 5 98 6.8 1016.1 1.1 2.5 NW 1019.6 6.5 6.8 0.0
17-10-2018 08:10 5 98 6.8 1016.0 1.1 2.5 NW 1019.5 6.5 6.8 0.0
17-10-2018 08:15 5 97 7.1 1016.2 0.0 0.0 NW 1019.7 6.7 7.1 0.0
17-10-2018 08:20 5 97 7.1 1016.4 0.0 0.0 NW 1019.9 6.7 7.1 0.0
17-10-2018 08:25 5 97 7.1 1016.2 0.0 0.0 NW 1019.7 6.7 7.1 0.0
17-10-2018 08:30 5 97 7.2 1016.2 0.0 1.1 NW 1019.7 6.8 7.2 0.0
17-10-2018 08:35 5 97 7.3 1016.2 0.0 1.1 NW 1019.7 6.9 7.3 0.0
17-10-2018 08:40 5 97 7.4 1016.3 0.0 0.0 NW 1019.8 7.0 7.4 0.0
17-10-2018 08:45 5 97 7.5 1016.3 0.0 0.0 NW 1019.8 7.1 7.5 0.0
17-10-2018 08:50 5 97 7.5 1016.4 0.0 0.0 NW 1019.9 7.1 7.5 0.0
17-10-2018 08:55 5 97 7.7 1016.4 0.0 0.0 NW 1019.9 7.3 7.7 0.0
17-10-2018 09:00 5 97 7.8 1016.4 0.0 0.0 NW 1019.9 7.4 7.8 0.0
17-10-2018 09:05 5 99 8.0 1016.4 0.0 0.0 NW 1019.9 7.9 8.0 0.0
17-10-2018 09:10 5 99 8.1 1016.2 0.0 0.0 NW 1019.7 8.0 8.1 0.0
17-10-2018 09:15 5 99 8.1 1016.5 0.0 0.0 NW 1020.0 8.0 8.1 0.0
17-10-2018 09:20 5 99 8.4 1016.5 0.0 0.0 NW 1020.0 8.3 8.4 0.0
17-10-2018 09:25 5 99 8.6 1016.6 0.0 0.0 NW 1020.1 8.5 8.6 0.0
17-10-2018 09:30 5 99 8.8 1016.6 0.0 0.0 NW 1020.1 8.7 8.8 0.0
17-10-2018 09:35 5 99 9.0 1016.7 0.0 1.1 NW 1020.2 8.9 9.0 0.0
17-10-2018 09:41 6 99 8.9 1016.8 0.0 1.1 NW 1020.3 8.8 8.9 0.0
17-10-2018 09:46 5 99 9.1 1016.8 0.0 0.0 NW 1020.3 9.0 9.1 0.0
17-10-2018 09:51 5 99 9.5 1016.8 1.1 1.1 NW 1020.3 9.4 9.5 0.0
17-10-2018 09:57 6 99 9.5 1016.8 2.5 5.0 NW 1020.3 9.4 9.5 0.0
17-10-2018 10:02 5 99 9.4 1016.8 1.1 3.6 NW 1020.3 9.3 9.4 0.0
17-10-2018 10:07 5 99 9.5 1016.9 1.1 3.6 NW 1020.4 9.4 9.5 0.0
17-10-2018 10:12 5 99 10.1 1016.9 0.0 0.0 NW 1020.4 10.0 10.1 0.0
17-10-2018 10:17 5 99 10.6 1016.8 0.0 0.0 NW 1020.3 10.5 10.6 0.0
17-10-2018 10:22 5 99 10.7 1016.9 0.0 0.0 NW 1020.4 10.6 10.7 0.0
17-10-2018 10:27 5 99 10.7 1016.9 0.0 1.1 NW 1020.4 10.6 10.7 0.0
17-10-2018 10:32 5 99 10.8 1016.8 0.0 1.1 NW 1020.3 10.7 10.8 0.0
17-10-2018 10:37 5 99 10.9 1016.8 0.0 2.5 NW 1020.3 10.8 10.9 0.0
17-10-2018 10:42 5 98 11.2 1016.7 0.0 1.1 NW 1020.2 10.9 11.2 0.0
17-10-2018 10:47 5 98 11.5 1016.9 0.0 0.0 NW 1020.4 11.2 11.5 0.0
17-10-2018 10:52 5 98 11.9 1016.8 0.0 2.5 NW 1020.3 11.6 11.9 0.0
17-10-2018 10:57 5 97 12.0 1016.9 0.0 1.1 NW 1020.4 11.6 12.0 0.0
17-10-2018 11:02 5 97 12.2 1016.9 0.0 0.0 NW 1020.4 11.8 12.2 0.0
17-10-2018 11:07 5 97 12.4 1016.7 0.0 0.0 NW 1020.2 12.0 12.4 0.0
17-10-2018 11:12 5 99 13.2 1016.7 1.1 3.6 NW 1020.2 13.1 13.2 0.0
17-10-2018 11:17 5 99 13.3 1016.7 0.0 0.0 NW 1020.2 13.2 13.3 0.0
17-10-2018 11:22 5 99 13.9 1016.7 0.0 1.1 NW 1020.2 13.8 13.9 0.0
17-10-2018 11:27 5 99 14.4 1016.7 0.0 2.5 NW 1020.2 14.3 14.4 0.0
17-10-2018 11:32 5 99 14.7 1016.7 0.0 0.0 NW 1020.2 14.6 14.7 0.0
17-10-2018 11:37 5 99 15.0 1016.6 1.1 2.5 NW 1020.1 14.9 15.0 0.0
17-10-2018 11:42 5 99 15.1 1016.6 1.1 3.6 NW 1020.1 15.0 15.1 0.0
17-10-2018 11:47 5 99 15.7 1016.4 0.0 1.1 NW 1019.9 15.6 15.7 0.0
17-10-2018 11:52 5 98 16.4 1016.5 0.0 0.0 NW 1020.0 16.1 16.4 0.0
17-10-2018 11:57 5 97 17.0 1016.5 0.0 0.0 NW 1020.0 16.5 17.0 0.0
17-10-2018 12:02 5 97 17.3 1016.4 1.1 2.5 NW 1019.9 16.8 17.3 0.0
17-10-2018 12:07 5 97 17.4 1016.4 0.0 1.1 NW 1019.9 16.9 17.4 0.0
17-10-2018 12:12 5 93 17.9 1016.4 0.0 2.5 NW 1019.9 16.8 17.9 0.0
17-10-2018 12:17 5 91 18.8 1016.5 0.0 3.6 NW 1020.0 17.3 18.8 0.0
17-10-2018 12:22 5 85 18.8 1016.4 2.5 3.6 NW 1019.9 16.2 18.8 0.0
17-10-2018 12:27 5 83 18.8 1016.4 3.6 6.1 NW 1019.9 15.9 18.8 0.0
17-10-2018 12:32 5 80 19.4 1016.4 0.0 2.5 NW 1019.9 15.9 19.4 0.0
17-10-2018 12:37 5 78 19.7 1016.4 1.1 2.5 NW 1019.9 15.8 19.7 0.0
17-10-2018 12:42 5 76 20.2 1016.5 2.5 6.1 NW 1020.0 15.9 20.2 0.0
17-10-2018 12:47 5 76 20.3 1016.4 1.1 5.0 NW 1019.9 16.0 20.3 0.0
17-10-2018 12:52 5 75 20.3 1016.4 2.5 3.6 NW 1019.9 15.7 20.3 0.0
17-10-2018 12:57 5 75 20.4 1016.3 2.5 3.6 NW 1019.8 15.8 20.4 0.0
17-10-2018 13:02 5 75 20.8 1016.4 1.1 3.6 NW 1019.9 16.2 20.8 0.0
17-10-2018 13:07 5 72 21.2 1016.3 3.6 6.1 NW 1019.8 16.0 21.2 0.0
17-10-2018 13:12 5 71 21.0 1016.2 2.5 5.0 NW 1019.7 15.6 21.0 0.0
17-10-2018 13:17 5 72 20.8 1016.1 2.5 3.6 NW 1019.6 15.6 20.8 0.0
17-10-2018 13:22 5 72 21.2 1016.2 5.0 6.1 NW 1019.7 16.0 21.2 0.0
17-10-2018 13:27 5 70 21.0 1016.2 1.1 3.6 NW 1019.7 15.3 21.0 0.0
17-10-2018 13:32 5 72 20.6 1016.2 1.1 3.6 NW 1019.7 15.4 20.6 0.0
17-10-2018 13:37 5 73 20.6 1016.1 2.5 5.0 NW 1019.6 15.6 20.6 0.0
17-10-2018 13:39 5 73 21.0 1016.1 2.5 6.1 NW 1019.6 16.0 21.0 0.0
17-10-2018 13:48 5 72 20.9 1016.2 1.1 5.0 NW 1019.7 15.7 20.9 0.0
17-10-2018 13:53 5 72 21.1 1016.1 0.0 2.5 NW 1019.6 15.9 21.1 0.0
17-10-2018 13:58 5 70 21.4 1016.0 3.6 5.0 NW 1019.5 15.7 21.4 0.0
17-10-2018 14:03 5 70 21.3 1016.2 2.5 3.6 NW 1019.7 15.6 21.3 0.0
17-10-2018 14:08 5 70 21.3 1016.1 2.5 3.6 NW 1019.6 15.6 21.3 0.0
17-10-2018 14:13 5 68 21.8 1016.1 2.5 6.1 NW 1019.6 15.7 21.8 0.0
17-10-2018 14:18 5 68 21.9 1016.1 3.6 6.1 NW 1019.6 15.8 21.9 0.0
17-10-2018 14:23 5 67 21.7 1016.1 2.5 3.6 NW 1019.6 15.3 21.7 0.0
17-10-2018 14:28 5 67 22.2 1016.1 3.6 6.1 NW 1019.6 15.8 22.2 0.0
17-10-2018 14:33 5 66 22.0 1016.0 1.1 3.6 NW 1019.5 15.4 22.0 0.0
17-10-2018 14:38 5 66 22.2 1016.0 2.5 5.0 NW 1019.5 15.6 22.2 0.0
17-10-2018 14:43 5 66 22.3 1016.0 3.6 6.1 NW 1019.5 15.7 22.3 0.0
17-10-2018 14:48 5 65 22.2 1016.1 2.5 7.2 NW 1019.6 15.3 22.2 0.0
17-10-2018 14:53 5 65 22.1 1016.1 1.1 2.5 NW 1019.6 15.2 22.1 0.0
17-10-2018 14:58 5 65 22.2 1016.1 3.6 5.0 NW 1019.6 15.3 22.2 0.0
17-10-2018 15:03 5 65 22.4 1016.2 1.1 3.6 NW 1019.7 15.5 22.4 0.0
17-10-2018 15:08 5 65 22.9 1016.1 6.1 8.6 NW 1019.6 16.0 22.9 0.0
17-10-2018 15:13 5 65 23.0 1016.0 0.0 1.1 NW 1019.5 16.1 23.0 0.0
17-10-2018 15:18 5 65 23.4 1016.0 0.0 0.0 NW 1019.5 16.5 23.4 0.0
17-10-2018 15:23 5 64 23.5 1016.0 2.5 5.0 NW 1019.5 16.3 23.5 0.0
17-10-2018 15:28 5 65 23.5 1016.0 0.0 0.0 NW 1019.5 16.6 23.5 0.0
17-10-2018 15:33 5 62 24.2 1016.0 0.0 0.0 NW 1019.5 16.5 24.2 0.0
17-10-2018 15:38 5 61 24.6 1016.0 0.0 0.0 NW 1019.5 16.6 24.6 0.0
17-10-2018 15:43 5 58 25.3 1015.9 1.1 3.6 NW 1019.4 16.5 25.3 0.0
17-10-2018 15:48 5 57 24.7 1016.0 0.0 0.0 NW 1019.5 15.6 24.7 0.0
17-10-2018 15:53 5 58 24.4 1016.0 0.0 0.0 NW 1019.5 15.6 24.4 0.0
17-10-2018 15:58 5 59 24.3 1015.8 0.0 0.0 NW 1019.3 15.8 24.3 0.0
17-10-2018 16:03 5 58 24.4 1015.8 1.1 3.6 NW 1019.3 15.6 24.4 0.0
17-10-2018 16:08 5 58 24.2 1015.7 1.1 2.5 NW 1019.2 15.4 24.2 0.0
17-10-2018 16:13 5 60 23.9 1015.8 0.0 0.0 NW 1019.3 15.7 23.9 0.0
17-10-2018 16:18 5 60 23.7 1015.7 2.5 5.0 NW 1019.2 15.5 23.7 0.0
17-10-2018 16:23 5 60 23.5 1015.7 0.0 0.0 NW 1019.2 15.3 23.5 0.0
17-10-2018 16:28 5 61 23.7 1015.6 0.0 0.0 NW 1019.1 15.8 23.7 0.0
17-10-2018 16:33 5 60 23.7 1015.8 1.1 2.5 NW 1019.3 15.5 23.7 0.0
17-10-2018 16:38 5 62 23.6 1015.8 0.0 0.0 NW 1019.3 15.9 23.6 0.0
17-10-2018 16:43 5 60 24.0 1015.8 0.0 0.0 NW 1019.3 15.8 24.0 0.0
17-10-2018 16:48 5 59 24.3 1015.8 0.0 0.0 NW 1019.3 15.8 24.3 0.0
17-10-2018 16:53 5 60 23.9 1015.9 0.0 0.0 NW 1019.4 15.7 23.9 0.0
17-10-2018 16:58 5 61 23.2 1015.8 0.0 0.0 NW 1019.3 15.3 23.2 0.0
17-10-2018 17:03 5 62 22.7 1015.8 0.0 0.0 NW 1019.3 15.1 22.7 0.0
17-10-2018 17:08 5 63 22.8 1015.9 0.0 0.0 NW 1019.4 15.4 22.8 0.0
17-10-2018 17:13 5 62 23.5 1015.8 0.0 0.0 NW 1019.3 15.8 23.5 0.0
17-10-2018 17:18 5 62 23.7 1015.9 0.0 0.0 NW 1019.4 16.0 23.7 0.0
17-10-2018 17:23 5 62 23.5 1015.8 0.0 0.0 NW 1019.3 15.8 23.5 0.0
17-10-2018 17:28 5 63 23.4 1015.8 0.0 0.0 NW 1019.3 16.0 23.4 0.0
17-10-2018 17:33 5 63 23.3 1015.9 0.0 0.0 NW 1019.4 15.9 23.3 0.0
17-10-2018 17:38 5 64 23.0 1016.0 0.0 0.0 NW 1019.5 15.9 23.0 0.0
17-10-2018 17:43 5 64 22.2 1015.8 0.0 0.0 NW 1019.3 15.1 22.2 0.0
17-10-2018 17:48 5 66 21.3 1015.9 0.0 0.0 NW 1019.4 14.7 21.3 0.0
17-10-2018 17:53 5 69 20.5 1016.0 0.0 0.0 NW 1019.5 14.6 20.5 0.0
17-10-2018 17:58 5 70 20.0 1015.9 0.0 0.0 NW 1019.4 14.4 20.0 0.0
17-10-2018 18:03 5 72 19.3 1015.9 0.0 0.0 NW 1019.4 14.1 19.3 0.0
17-10-2018 18:08 5 72 19.3 1015.9 0.0 0.0 NW 1019.4 14.1 19.3 0.0
17-10-2018 18:13 5 77 18.1 1016.1 0.0 0.0 NW 1019.6 14.0 18.1 0.0
17-10-2018 18:18 5 78 17.8 1016.0 0.0 0.0 NW 1019.5 13.9 17.8 0.0
17-10-2018 18:23 5 81 17.4 1016.0 0.0 0.0 NW 1019.5 14.1 17.4 0.0
17-10-2018 18:28 5 83 17.4 1015.9 0.0 0.0 NW 1019.4 14.5 17.4 0.0
17-10-2018 18:33 5 85 17.3 1016.0 0.0 0.0 NW 1019.5 14.8 17.3 0.0
17-10-2018 18:38 5 85 17.0 1016.0 0.0 1.1 NW 1019.5 14.5 17.0 0.0
17-10-2018 18:43 5 87 16.8 1016.0 0.0 0.0 NW 1019.5 14.6 16.8 0.0
17-10-2018 18:48 5 88 16.6 1016.0 0.0 0.0 NW 1019.5 14.6 16.6 0.0
17-10-2018 18:53 5 89 16.5 1016.0 0.0 0.0 NW 1019.5 14.7 16.5 0.0
17-10-2018 18:58 5 89 16.3 1016.1 0.0 0.0 NW 1019.6 14.5 16.3 0.0
17-10-2018 19:03 5 89 16.0 1016.1 0.0 0.0 NW 1019.6 14.2 16.0 0.0
17-10-2018 19:08 5 91 15.9 1016.0 0.0 3.6 NW 1019.5 14.5 15.9 0.0
17-10-2018 19:13 5 93 15.9 1016.1 2.5 5.0 NW 1019.6 14.8 15.9 0.0
17-10-2018 19:18 5 94 15.8 1016.1 0.0 0.0 NW 1019.6 14.9 15.8 0.0
17-10-2018 19:23 5 93 15.6 1016.2 0.0 0.0 NW 1019.7 14.5 15.6 0.0
17-10-2018 19:28 5 93 14.4 1016.3 6.1 7.2 NW 1019.8 13.3 14.4 0.0
17-10-2018 19:33 5 96 13.6 1016.4 5.0 6.1 NW 1019.9 13.0 13.6 0.0
17-10-2018 19:38 5 98 14.2 1016.5 3.6 6.1 NW 1020.0 13.9 14.2 0.0
17-10-2018 19:43 5 99 14.0 1016.5 2.5 3.6 NW 1020.0 13.9 14.0 0.0
17-10-2018 19:48 5 99 14.0 1016.5 2.5 5.0 NW 1020.0 13.9 14.0 0.0
17-10-2018 19:53 5 99 14.2 1016.5 0.0 0.0 NW 1020.0 14.1 14.2 0.0
17-10-2018 19:58 5 99 14.2 1016.4 0.0 0.0 NW 1019.9 14.1 14.2 0.0
17-10-2018 20:03 5 99 14.1 1016.3 0.0 0.0 NW 1019.8 14.0 14.1 0.0
17-10-2018 20:08 5 99 14.1 1016.4 0.0 0.0 NW 1019.9 14.0 14.1 0.0
17-10-2018 20:14 6 99 13.4 1016.5 0.0 0.0 NW 1020.0 13.3 13.4 0.0
17-10-2018 20:19 5 99 13.1 1016.5 1.1 2.5 NW 1020.0 13.0 13.1 0.0
17-10-2018 20:24 5 99 13.4 1016.5 0.0 0.0 NW 1020.0 13.3 13.4 0.0
17-10-2018 20:30 6 99 13.1 1016.4 1.1 2.5 NW 1019.9 13.0 13.1 0.0
17-10-2018 20:35 5 99 13.4 1016.4 2.5 3.6 NW 1019.9 13.3 13.4 0.0
17-10-2018 20:40 5 99 13.2 1016.4 0.0 0.0 NW 1019.9 13.1 13.2 0.0
17-10-2018 20:46 6 97 12.3 1016.5 1.1 2.5 NW 1020.0 11.9 12.3 0.0
17-10-2018 20:51 5 97 12.2 1016.5 0.0 0.0 NW 1020.0 11.8 12.2 0.0
17-10-2018 20:56 5 97 12.3 1016.6 0.0 0.0 NW 1020.1 11.9 12.3 0.0
17-10-2018 21:02 6 98 11.8 1016.6 0.0 0.0 NW 1020.1 11.5 11.8 0.0
17-10-2018 21:07 5 97 12.0 1016.6 0.0 0.0 NW 1020.1 11.6 12.0 0.0
17-10-2018 21:12 5 98 11.3 1016.6 2.5 3.6 NW 1020.1 11.0 11.3 0.0
17-10-2018 21:18 6 98 11.5 1016.7 2.5 3.6 NW 1020.2 11.2 11.5 0.0
17-10-2018 21:23 5 98 11.3 1016.7 1.1 2.5 W 1020.2 11.0 11.3 0.0
17-10-2018 21:28 5 98 11.1 1016.8 2.5 2.5 NW 1020.3 10.8 11.1 0.0
17-10-2018 21:33 5 98 11.1 1016.9 0.0 1.1 NW 1020.4 10.8 11.1 0.0
17-10-2018 21:38 5 98 11.1 1016.8 0.0 0.0 NW 1020.3 10.8 11.1 0.0
17-10-2018 21:43 5 98 11.0 1016.9 0.0 0.0 NW 1020.4 10.7 11.0 0.0
17-10-2018 21:48 5 98 11.3 1016.9 0.0 0.0 NW 1020.4 11.0 11.3 0.0
17-10-2018 21:53 5 98 11.4 1016.8 0.0 0.0 W 1020.3 11.1 11.4 0.0
17-10-2018 21:58 5 98 11.5 1016.9 0.0 0.0 W 1020.4 11.2 11.5 0.0
17-10-2018 22:03 5 98 11.5 1016.9 2.5 3.6 W 1020.4 11.2 11.5 0.0
17-10-2018 22:08 5 98 11.6 1016.9 1.1 2.5 W 1020.4 11.3 11.6 0.0
17-10-2018 22:13 5 98 11.6 1016.8 1.1 2.5 W 1020.3 11.3 11.6 0.0
17-10-2018 22:19 6 99 10.8 1016.9 0.0 0.0 NW 1020.4 10.7 10.8 0.0
17-10-2018 22:24 5 99 10.9 1016.9 0.0 1.1 W 1020.4 10.8 10.9 0.0
17-10-2018 22:29 5 99 10.9 1016.7 0.0 0.0 NW 1020.2 10.8 10.9 0.0
17-10-2018 22:35 6 99 10.6 1016.9 1.1 2.5 NW 1020.4 10.5 10.6 0.0
17-10-2018 22:40 5 99 10.0 1016.9 1.1 2.5 NW 1020.4 9.9 10.0 0.0
17-10-2018 22:45 5 99 9.7 1016.9 2.5 3.6 NW 1020.4 9.6 9.7 0.0
17-10-2018 22:51 6 99 9.0 1016.8 1.1 2.5 NW 1020.3 8.9 9.0 0.0
17-10-2018 22:56 5 99 9.1 1016.8 0.0 1.1 NW 1020.3 9.0 9.1 0.0
17-10-2018 23:01 5 99 9.2 1016.8 0.0 0.0 NW 1020.3 9.1 9.2 0.0
17-10-2018 23:07 6 99 9.1 1016.8 0.0 0.0 NW 1020.3 9.0 9.1 0.0
17-10-2018 23:12 5 99 9.1 1016.7 0.0 0.0 NW 1020.2 9.0 9.1 0.0
17-10-2018 23:17 5 99 9.1 1016.8 0.0 0.0 NW 1020.3 9.0 9.1 0.0
17-10-2018 23:23 6 99 9.0 1016.9 0.0 0.0 NW 1020.4 8.9 9.0 0.0
17-10-2018 23:28 5 99 9.1 1016.9 0.0 1.1 NW 1020.4 9.0 9.1 0.0
17-10-2018 23:33 5 99 9.1 1016.8 0.0 0.0 NW 1020.3 9.0 9.1 0.0
17-10-2018 23:39 6 99 9.1 1016.7 0.0 0.0 NW 1020.2 9.0 9.1 0.0
17-10-2018 23:44 5 99 9.1 1016.7 0.0 0.0 NW 1020.2 9.0 9.1 0.0
17-10-2018 23:49 5 99 9.1 1016.7 0.0 0.0 NW 1020.2 9.0 9.1 0.0
17-10-2018 23:55 6 99 9.1 1016.7 0.0 0.0 NW 1020.2 9.0 9.1 0.0

                                                                                                  Tabelle: 08 : 00 UHR

STATIONHÖHELUFTD.TEMP.T-MinT-MaxU%RR1RR12SSSDDFFFXWetter+WolkenBöen
UFS TW Ems 0 ------ --- --- --- --- ---- --- --- -- --- --- --- ---
UFS Deutsche Bucht 0 1017.2 15.7 15.2 17.8 85 ---- --- --- S 18 --- --- ---
Helgoland 4 1017.4 15.5 15.1 16.7 85 0.0 0 0 S 20 24 --- ---
List/Sylt 26 1017.2 14.2 13.1 14.8 93 0.0 0 0 S 21 27 Dunst oder flacher Nebel ---
Schleswig 43 1018.5 12.9 12.3 14.0 98 0.0 0 0 S 8 14 Dunst oder flacher Nebel ---
Leuchtturm Kiel 5 1018.7 14.3 13.8 17.1 92 ---- --- --- S 21 25 --- ---
Kiel 27 1018.9 13.5 11.7 15.3 96 0.0 0 0 S 6 10 Dunst oder flacher Nebel ---
Fehmarn 3 1019.2 11.6 9.6 15.1 100 0.0 0 0 SO 8 12 Nebel ---
Arkona 42 1019.6 13.0 12.7 15.5 89 0.0 0 --- O 5 8 Dunst oder flacher Nebel ---
Norderney 11 1017.4 14.7 14.7 18.9 82 0.0 0 0 S 15 23 --- ---
Leuchtt. Alte Weser 32 1017.7 14.9 14.9 20.1 90 ---- --- --- S 22 --- --- ---
Cuxhaven 5 1018.1 13.9 13.8 16.2 89 0.0 0 0 S 8 17 Dunst oder flacher Nebel ---
Hamburg-Flh. 11 1019.2 11.8 10.7 16.6 98 0.0 0 0 NW 4 11 Nebel ---
Schwerin 59 1019.2 10.9 10.2 17.1 97 0.0 0 0 SO 6 10 Nebel ---
Rostock 4 1019.2 10.6 10.6 16.4 94 0.0 0 0 SO 9 13 Dunst oder flacher Nebel ---
Greifswald 2 1019.8 6.3 6.2 11.6 97 0.0 0 0 - 0 6 heiter ---
Emden 0 1017.6 13.9 12.5 17.9 83 0.0 0 0 SO 5 17 --- ---
Bremen-Flh. 5 1018.7 11.1 10.2 18.7 97 0.0 0 0 SO 5 9 Nebel ---
Lüchow 17 1019.6 8.0 6.4 15.6 100 0.0 0 0 SO 3 4 Nebel ---
Marnitz 81 1019.8 7.9 7.4 14.3 99 0.0 0 0 SW 4 7 Dunst oder flacher Nebel ---
Waren 70 1019.8 8.8 8.5 14.7 94 0.0 0 0 - 0 6 Dunst oder flacher Nebel ---
Neuruppin 38 1019.8 6.8 6.7 13.1 96 0.0 0 --- - 0 5 wolkenlos ---
Angermünde 56 1020.1 5.6 4.5 11.5 99 0.0 0 0 SO 2 7 Nebel ---
Münster/Osnabr.-Flh. 48 1019.0 10.5 9.4 15.3 99 0.0 0 0 - 0 10 Nebel ---
Hannover-Flh. 59 1019.3 9.5 8.3 15.6 100 0.0 0 0 O 3 8 Nebel ---
Magdeburg 76 1019.7 9.8 9.8 16.1 94 0.0 0 0 - 0 3 Dunst oder flacher Nebel ---
Potsdam 81 1019.7 8.9 8.4 16.3 87 0.0 0 0 SO 7 9 heiter ---
Berlin-Tegel 37 1019.6 8.3 5.7 13.3 87 0.0 0 0 NO 4 8 Dunst oder flacher Nebel ---
Berlin-Tempelhof 48 1019.8 7.6 6.7 13.3 92 0.0 0 --- O 5 7 --- ---
Berlin-Dahlem 51 1019.8 6.5 6.2 12.4 --- ---- 0 0 S 7 --- heiter ---
Lindenberg 91 1020.0 7.7 7.2 16.2 93 0.0 0 0 S 9 14 Dunst oder flacher Nebel ---
Düsseldorf-Flh. 45 1018.9 12.9 12.9 17.7 80 0.0 0 0 S 6 13 heiter ---
Essen 150 1018.8 16.0 15.9 20.7 68 0.0 0 0 SW 5 14 --- ---
Kahler Asten 839 ------ 14.0 13.6 15.0 63 0.0 0 0 W 6 6   ---
Bad Lippspringe 157 1019.3 11.0 9.0 16.8 93 0.0 0 --- NW 4 6 --- ---
Fritzlar 174 1020.8 8.5 8.4 13.3 99 ---- 0 0 NW 4 --- Nebel ---
Brocken 1142 ------ 11.4 10.5 11.7 71 ---- 0 0 N 22 27 heiter ---
Leipzig-Flh. 142 1019.9 8.7 8.4 14.3 --- 0.0 0 0 S 8 11 Dunst oder flacher Nebel ---
Dresden-Flh. 227 1020.4 7.7 7.5 16.4 91 0.0 0 0 S 14 17 heiter ---
Cottbus 69 1020.1 4.6 4.6 11.4 95 0.0 0 0 N 2 9 Dunst oder flacher Nebel ---
Görlitz 238 1020.6 9.4 8.2 15.0 77 0.0 0 0 S 10 13 heiter ---
Aachen 231 1019.3 11.6 11.6 18.7 76 0.0 0 0 SW 9 18 gering bewölkt ---
Nürburg 485 1020.5 8.7 8.5 18.1 90 0.0 0 0 W 4 10 --- ---
Köln/Bonn-Flh. 92 1019.4 8.5 8.5 19.8 97 0.0 0 0 SO 7 11 Dunst oder flacher Nebel ---
Gießen/Wettenberg 203 1020.4 7.5 7.2 16.6 98 0.0 0 0 N 3 9 Nebel ---
Wasserkuppe 921 ------ 10.9 10.8 13.4 78 0.0 0 --- SO 4 4 wolkenlos ---
Meiningen 450 1020.9 7.6 6.6 15.0 97 0.0 0 0 SO 2 9 Nebel ---
Erfurt 316 1020.3 8.1 7.7 15.8 98 0.0 0 0 SW 12 14 Dunst oder flacher Nebel ---
Gera 311 1020.5 8.1 7.9 13.8 92 0.0 0 0 S 10 15 Dunst oder flacher Nebel ---
Fichtelberg 1213 ------ 8.6 8.5 10.8 76 ---- --- 0 W 17 19 heiter ---
Trier 265 1020.0 8.2 7.5 18.0 96 0.0 0 0 N 10 14 --- ---
Hahn-Flh. 497 1019.6 12.3 11.8 17.6 80 0.0 0 0 -- --- 19 --- ---
Frankfurt/M-Flh. 112 1019.6 10.8 10.5 21.0 88 0.0 0 0 NO 6 8 heiter ---
OF-Wetterpark 119 1019.8 8.3 8.1 19.9 98 0.0 0 --- NO 3 4 Nebel ---
Würzburg 268 1021.0 7.9 7.5 18.1 100 0.0 0 0 - 0 6 Nebel ---
Bamberg 239 1021.5 2.6 1.9 13.1 98 0.0 0 0 SO 3 5 Dunst oder flacher Nebel ---
Hof 567 1021.5 5.9 5.4 14.2 95 0.0 0 0 SW 4 7 Dunst oder flacher Nebel ---
Weiden 438 1021.1 6.7 5.6 14.9 95 0.0 0 0 SO 5 7 leichter Regen ---
Saarbrücken-Flh. 320 1019.5 9.3 8.5 15.7 92 0.0 0 0 O 7 9 heiter ---
Karlsruhe-Rheinst. 116 1020.0 4.9 4.8 13.7 95 0.0 0 0 NO 3 4 --- ---
Mannheim 96 1019.6 8.2 6.4 17.6 99 0.0 0 0 NO 2 5 Nebel ---
Stuttgart-Flh. 371 1020.8 5.8 5.8 15.7 93 0.0 0 0 NO 4 5 Dunst oder flacher Nebel ---
Öhringen 276 1020.3 8.0 7.9 17.9 87 0.0 0 0 O 8 10 wolkenlos ---
Nürnberg-Flh. 314 1021.4 4.5 4.4 15.2 95 0.0 0 0 - 0 5 Nebel ---
Regensburg 366 1021.0 5.9 5.9 13.9 97 0.0 0 0 N 5 7 Dunst oder flacher Nebel ---
Straubing 351 1021.0 6.7 5.2 15.3 97 0.0 0 0 SO 2 6 Dunst oder flacher Nebel ---
Großer Arber 1436 ------ 8.2 7.9 9.9 76 0.0 0 0 NW 9 11 --- ---
Lahr 155 1019.8 5.9 5.1 13.1 100 0.0 0 0 S 4 4 Nebel ---
Freudenstadt 797 ------ 10.2 8.2 15.3 70 0.0 0 0 N 5 9 --- ---
Stötten 734 1019.2 13.1 12.7 16.2 61 0.0 0 --- O 5 9 wolkenlos ---
Augsburg 462 1021.7 4.1 3.4 11.5 99 0.0 0 0 SO 4 6 Dunst oder flacher Nebel ---
München-Flh. 444 1021.7 3.9 2.2 12.3 95 0.0 0 0 - 0 4 Dunst oder flacher Nebel ---
Fürstenzell 476 1020.7 9.6 7.9 15.8 92 0.0 0 0 SO 4 9 Dunst oder flacher Nebel ---
Feldberg/Schw. 1486 ------ 10.2 10.2 11.6 61 0.0 0 0 O 27 30 --- ---
Konstanz 443 1020.4 8.3 8.0 15.2 93 0.0 0 0 N 4 9 wolkenlos ---
Kempten 705 1022.2 4.0 3.7 10.4 92 0.0 0 0 O 5 9 wolkenlos ---
Oberstdorf 806 ------ 2.6 1.4 10.0 96 0.0 0 0 - 0 7 --- ---
Zugspitze 2960 ------ -0.9 -1.3 -0.1 56 ---- --- 0 N 7 12 wolkenlos ---
Hohenpeißenberg 977 ------ 11.2 10.7 15.0 59 0.0 0 0 SW 7 13 heiter ---

                                                                                               Tabelle: 20 : 00 UHR 

STATIONHÖHELUFTD.TEMP.T-MinT-MaxU%RR1RR12SSSDDFFFXWetter+WolkenBöen
UFS TW Ems 0 ------ --- --- --- --- ---- --- --- -- --- --- --- ---
UFS Deutsche Bucht 26 1019.9 15.4 15.2 15.9 83 ---- --- --- W 14 --- --- ---
Helgoland 4 1020.1 15.3 15.2 16.6 83 0.0 0 0 NW 15 19 --- ---
List/Sylt 26 1019.6 13.4 13.1 18.0 96 0.0 0 0 W 4 12 Dunst oder flacher Nebel ---
Schleswig 43 1019.5 13.7 12.9 21.6 95 0.0 0 0 W 10 17 Dunst oder flacher Nebel ---
Leuchtturm Kiel 5 1019.0 17.7 14.3 21.0 74 ---- --- --- NW 15 22 --- ---
Kiel 27 1019.1 15.8 13.5 22.9 84 0.0 0 0 W 5 11 Dunst oder flacher Nebel ---
Fehmarn 3 1019.0 13.9 11.5 21.3 83 0.0 0 0 SO 10 13 Dunst oder flacher Nebel ---
Arkona 42 1019.7 14.7 12.9 18.2 72 0.0 0 --- S 10 13 --- ---
Norderney 11 1020.4 14.7 14.4 16.9 88 0.0 0 0 NW 10 16 --- ---
Leuchtt. Alte Weser 32 1020.0 15.1 14.5 16.2 91 ---- --- --- NW 11 --- --- ---
Cuxhaven 5 1020.0 14.8 13.9 21.0 93 0.0 0 0 NW 12 24 Dunst oder flacher Nebel ---
Hamburg-Flh 11 1019.2 16.2 11.4 23.9 81 0.0 0 0 NW 4 17 gering bewölkt ---
Schwerin 59 1019.0 14.2 10.5 21.7 89 0.0 0 --- SO 4 8 Dunst oder flacher Nebel ---
Rostock 4 1019.2 15.0 10.5 20.2 87 0.0 0 0 SO 5 13 Dunst oder flacher Nebel ---
Greifswald 2 1019.7 10.7 6.2 19.9 96 0.0 0 0 W 5 10 gering bewölkt ---
Emden 0 1020.3 15.1 11.2 19.1 85 0.0 0 0 NW 6 13 --- ---
Bremen-Flh. 5 1019.8 16.2 10.6 24.2 80 0.0 0 0 N 17 31 gering bewölkt ---
Lüchow 17 1019.1 12.8 7.9 22.3 91 0.0 0 0 - 0 3 Dunst oder flacher Nebel ---
Marnitz 81 1019.2 12.5 8.0 22.0 91 0.0 0 0 S 3 5 Dunst oder flacher Nebel ---
Waren 70 1019.4 12.7 8.7 19.6 79 0.0 0 0 - 0 3 --- ---
Neuruppin 38 1019.3 12.2 6.8 20.4 90 0.0 0 --- - 0 3 wolkenlos ---
Angermünde 56 1019.7 11.2 4.9 20.0 88 0.0 0 0 - 0 4 wolkenlos ---
Münster/Osnabr.-Flh. 48 1019.7 13.8 10.2 22.1 92 0.0 0 0 N 4 5 gering bewölkt ---
Hannover-Flh. 59 1018.8 14.6 9.6 24.0 89 0.0 0 0 W 3 5 gering bewölkt ---
Magdeburg 76 1019.1 14.2 9.4 22.3 79 0.0 0 0 NO 4 5 --- ---
Potsdam 81 1019.3 15.2 8.1 20.3 68 0.0 0 0 O 14 15 wolkenlos ---
Berlin-Tegel 37 1019.2 13.0 8.4 21.1 77 0.0 0 0 NO 2 4 wolkenlos ---
Berlin-Tempelhof 48 1019.4 12.6 7.6 21.4 75 0.0 0 --- SO 2 6 --- ---
Berlin-Dahlem 51 1019.4 12.1 6.4 21.2 --- ---- 0 0 SO 11 --- wolkenlos ---
Lindenberg 91 1019.5 13.5 7.6 19.8 77 0.0 0 0 O 5 11 wolkenlos ---
Düsseldorf-Flh. 45 1019.4 17.6 12.0 22.7 71 0.0 0 0 N 10 15 gering bewölkt ---
Essen 150 1019.5 17.1 15.4 21.5 70 0.0 0 0 N 9 14 --- ---
Kahler Asten 839 ------ 14.1 13.7 19.4 68 0.0 0 0 NO 14 21 --- ---
Bad Lippspringe 157 1019.0 14.6 10.8 24.2 79 0.0 0 0 NO 4 8 --- ---
Fritzlar 174 1019.3 12.4 8.6 20.6 92 ---- 0 0 W 4 --- gering bewölkt ---
Brocken 1142 ------ 10.4 10.3 17.0 81 ---- 0 0 N 12 13 gering bewölkt ---
Leipzig-Flh. 142 1019.0 15.1 8.7 20.7 --- 0.0 0 0 O 7 9 wolkenlos ---
Dresden-Flh. 227 1019.1 16.4 7.7 20.7 60 0.0 0 0 SO 7 9 wolkenlos ---
Cottbus 69 1019.1 11.1 4.6 21.3 86 0.0 0 0 NO 2 9 --- ---
Görlitz 238 1019.5 13.1 8.9 21.0 72 0.0 0 0 SO 3 9 gering bewölkt ---
Aachen 231 1019.6 16.2 11.5 20.4 73 0.0 0 0 N 8 11 --- ---
Nürburg 485 1019.0 16.0 8.8 21.7 65 0.0 0 0 N 8 13 --- ---
Köln/Bonn-Flh. 92 1019.0 16.3 8.5 23.7 74 0.0 0 0 N 8 13 gering bewölkt ---
Gießen/Wettenberg 203 1018.6 14.9 7.2 22.5 77 0.0 0 0 NO 6 9 --- ---
Wasserkuppe 921 ------ 13.1 10.8 17.7 74 0.0 0 --- N 13 17 --- ---
Meiningen 450 1019.0 15.2 7.2 20.5 73 0.0 0 0 NW 7 12 --- ---
Erfurt 316 1018.8 16.9 7.7 20.4 69 0.0 0 0 O 7 8 gering bewölkt ---
Gera 311 1019.1 14.9 7.9 19.9 75 0.0 0 0 O 10 12 --- ---
Fichtelberg 1213 ------ 9.9 8.6 15.7 74 ---- --- --- N 11 12 --- ---
Trier 265 1018.2 17.3 7.9 23.0 58 0.0 0 0 NO 8 13 --- ---
Hahn-Flh. 497 1018.5 16.9 12.2 21.0 59 0.0 0 0 SO 8 27 --- ---
Frankfurt/M-Flh. 112 1018.4 16.5 10.3 23.2 63 0.0 0 0 NO 6 9 gering bewölkt ---
OF-Wetterpark 119 1018.5 14.6 7.9 22.8 78 0.0 0 --- - 0 4 --- ---
Würzburg 268 1018.9 16.1 7.6 22.2 65 0.0 0 0 N 5 8 --- ---
Bamberg 239 1019.2 9.6 2.2 21.7 88 0.0 0 0 O 2 4 wolkenlos ---
Hof 567 1019.3 13.6 5.5 19.5 66 0.0 0 0 N 6 9 gering bewölkt ---
Weiden 438 1019.4 12.1 6.5 20.3 70 0.0 0 0 O 4 5 --- ---
Saarbrücken-Flh. 320 1018.1 15.8 8.4 22.5 66 0.0 0 0 NO 11 21 gering bewölkt ---
Karlsruhe-Rheinst. 116 1017.7 16.5 4.8 22.6 69 0.0 0 0 NO 8 16 --- ---
Mannheim 96 1018.2 15.7 7.3 22.0 71 0.0 0 0 NO 3 7 --- ---
Stuttgart-Flh. 371 1017.5 17.4 5.6 21.8 53 0.0 0 0 NW 15 19 gering bewölkt ---
Öhringen 276 1018.4 15.7 7.9 23.3 61 0.0 0 0 O 5 15 wolkenlos ---
Nürnberg-Flh. 314 1018.7 14.0 4.3 21.1 71 0.0 0 0 SO 2 5 gering bewölkt ---
Regensburg 366 1018.8 13.0 5.9 20.6 77 0.0 0 0 N 5 7 wolkenlos ---
Straubing 351 1018.8 12.2 6.2 20.3 77 0.0 0 0 NW 2 6 wolkenlos ---
Großer Arber 1436 ------ 8.9 8.2 13.7 82 0.0 0 0 O 9 10 --- ---
Lahr 155 1017.4 13.9 5.6 20.4 82 0.0 0 0 NO 4 6 --- ---
Freudenstadt 797 ------ 14.0 8.7 19.7 63 0.0 0 0 NO 8 17 --- ---
Stötten 734 1018.4 13.5 12.8 19.4 66 0.0 0 --- O 12 14 wolkenlos ---
Augsburg 462 1019.1 9.9 4.0 20.3 87 0.0 0 0 O 7 9 wolkenlos ---
München-Flh. 444 1018.8 11.5 3.2 20.2 82 0.0 0 0 - 0 9 wolkenlos ---
Fürstenzell 476 1018.3 14.9 8.4 19.4 71 0.0 0 0 NO 5 6 wolkenlos ---
Feldberg/Schw. 1486 ------ 10.5 10.1 13.2 66 0.0 0 0 NO 28 36 --- ---
Konstanz 443 1017.0 15.6 7.8 22.3 64 0.0 0 0 N 8 16 --- ---
Kempten 705 1018.5 10.7 3.8 20.0 76 0.0 0 0 NO 5 8 wolkenlos ---
Oberstdorf 806 ------ 9.7 1.4 19.4 82 0.0 0 0 S 6 14 wolkenlos ---
Zugspitze 2960 ------ 0.6 -0.5 3.5 80 ---- --- --- S 12 17 wolkenlos ---
Hohenpeißenberg 977 ------ 12.9 10.9 16.2 62 0.0 0 0 O 12 23 wolkenlos ---

 

  • Temperatur
  • Wetterzustand
  • Windrichtung und -geschwindigkeit
  • Luftdruck
  • relative Luftfeuchtigkeit
  • Sichtweite
  • Gesamtbedeckungsgrad
  • Niederschlag
  • Sonnenscheindauer

 Höhe:     m über NN
Luftd.:   auf Meereshöhe reduzierter Luftdruck in hPa
TEMP.:   Lufttemperatur in Grad Celsius
T-MIN:   Minimumtemperatur der Luft in 2m Höhe in Grad Celsius, von 18 UTC Vortag bis 06 UTC heute
T-MAX:  Maximumtemperatur der Luft in 2m Höhe in Grad Celsius, von 18 UTC Vortag bis 06 UTC heute
RR1:     Niederschlagsmenge, einstündig, mm ist gleich Liter pro
RR12:   Niederschlagsmenge, 12 stündig, 18 UTC Vortag bis 06 UTC heute in mm ist gleich Liter pro
SSS:     Gesamtschneehöhe
DD:      Windrichtung
FF:       Windgeschwindigkeit letztes 10-Minutenmittel in km/h
FX:       höchste Windspitze während der letzten Stunde in km/h
---:      Wert nicht vorhanden

 

2009-2018

Unwetterwarnungen

 

Radarbild          
aktueller Radarfilm Deutschland

Europa-Meteoalarm